NY Terminal Aviation Weather Discussion (AFD) - Prepared: 205 PM EDT THU OCT 30 2014
HI PRES SLIDES NORTH OF THE TERMINALS THROUGH TONIGHT...WITH LOW
PRES BEGINS TO DEVELOP S OF THE REGION FRI.

MAINLY VFR THROUGH TAF PERIOD. SCT-BKN 4-5 KFT STRATO CU THIS
AFTERNOON...BECOMING SCT TONIGHT. INCREASING LIKELIHOOD FOR BKN
STRATO-CU 3.5-4 KFT TO DEVELOP FRI MORNING. INCREASING POTENTIAL
FOR CIGS TO LOWER TO MVFR TOWARDS FRI EVE ACROSS METRO TERMINALS
WITH -RA DEVELOPING.

NW WINDS...BACKING TO THE WNW LATE THIS AFT INTO EARLY
EVE...S COASTS. DIRECTION VEERS TO THE N OVERNIGHT AND NE ON
FRIDAY.

5 Day General Aviation Outlook:

.OUTLOOK FOR 18Z FRIDAY THROUGH TUESDAY...
.FRI AFT...CIGS LOWER THRU THE AFT WITH MVFR POSSIBLE LATE.
.FRI NGT-SAT NGT...MVFR OR LOWER. PCPN MAINLY RAIN...BUT SNOW MAY
MIX IN ACROSS THE INTERIOR SUN NIGHT. NE-N WINDS 15-20G25-35KT.
.SUNDAY...MAINLY VFR. AFT STRATO-CU WITH ISOLATED
FLURRIES/SPRINKLES. NW WINDS 20-25G30-35KT.
.MONDAY...VFR. WEST WINDS 5-10 KT.
.TUESDAY...VFR.


*************************************************************************************
KJFK Terminal Weather:

FTNA35 KJFK 301900 RRG
KJFK 301736Z 3018/3124 33011KT P6SM SCT040
     FM301900 31010KT P6SM BKN040
     TEMPO 3019/3023 29010KT BKN040
     FM310100 34007KT P6SM SCT040
     FM310900 01007KT P6SM SCT035
     FM311500 04007KT P6SM BKN035
     FM312100 06010KT P6SM -RA SCT025 BKN035
KJFK FCSTER COMMENTS: WINDS GENERALLY RIGHT OF 310 MAGNETIC
THROUGH THIS EVENING...BUT WAVERING BETWEEN 290 AND 310 MAGNETIC
THROUGH 23Z.

*************************************************************************************
KLGA Terminal Weather:
FTUS80 KLGA 301739 RRE
KLGA 301736Z 3018/3118 33011KT P6SM SCT040
     FM301900 32010KT P6SM BKN040
     FM310100 35007KT P6SM SCT040
     FM310900 02007KT P6SM SCT035
     FM311500 04009KT P6SM BKN035
KLGA FCSTER COMMENTS: WINDS GENERALLY RIGHT OF 310 MAGNETIC
THROUGH THIS EVENING.

*************************************************************************************
KEWR Terminal Weather:
FTUS80 KEWR 301739 RRC
KEWR 301736Z 3018/3124 33010KT P6SM SCT040
     FM301900 31009KT P6SM BKN040
     FM310000 33006KT P6SM SCT040
     FM310900 02006KT P6SM SCT035
     FM311500 04006KT P6SM BKN035
     FM312100 06008KT P6SM -RA SCT025 BKN035
KEWR FCSTER COMMENTS: WINDS GENERALLY RIGHT OF 310 MAGNETIC
THROUGH THIS EVENING...BUT WAVERING BETWEEN 290 AND 310 MAGNETIC
THROUGH 23Z.

*************************************************************************************
KTEB Terminal Weather:
FTUS80 KTEB 301739 RRH
KTEB 301736Z 3018/3118 33007KT P6SM SCT040
     FM301900 31007KT P6SM BKN040
     FM310100 34004KT P6SM SCT040
     FM310900 01004KT P6SM SCT035
     FM311500 04004KT P6SM BKN035
KTEB FCSTER COMMENTS: WINDS GENERALLY RIGHT OF 310 MAGNETIC
THROUGH THIS EVENING.

*************************************************************************************
KHPN Terminal Weather:
FTUS80 KHPN 301739 RRD
KHPN 301736Z 3018/3118 32007KT P6SM SCT040
     FM301900 31007KT P6SM BKN040
     FM310100 33004KT P6SM SCT040
     FM310900 01004KT P6SM SCT035
     FM311500 04004KT P6SM BKN035 AMD NOT SKED
KHPN FCSTER COMMENTS: NO UNSCHEDULED AMENDMENTS EXPECTED.

*************************************************************************************
KISP Terminal Weather:
FTUS80 KISP 301739 RRE
KISP 301736Z 3018/3118 33009KT P6SM SCT035
     FM301900 30007KT P6SM SCT040
     FM310100 35004KT P6SM SCT040
     FM310900 02004KT P6SM SCT035
     FM311500 05007KT P6SM BKN035
KISP FCSTER COMMENTS: NO UNSCHEDULED AMENDMENTS EXPECTED.  

*************************************************************************************
5 Day General Outlook:

.OUTLOOK FOR 18Z FRIDAY THROUGH TUESDAY...
.FRI AFT...CIGS LOWER THRU THE AFT WITH MVFR POSSIBLE LATE.
.FRI NGT-SAT NGT...MVFR OR LOWER. PCPN MAINLY RAIN...BUT SNOW MAY
MIX IN ACROSS THE INTERIOR SUN NIGHT. NE-N WINDS 15-20G25-35KT.
.SUNDAY...MAINLY VFR. AFT STRATO-CU WITH ISOLATED
FLURRIES/SPRINKLES. NW WINDS 20-25G30-35KT.
.MONDAY...VFR. WEST WINDS 5-10 KT.
.TUESDAY...VFR.


Click the Print Icon print icon below to print the briefing sheet